Time;durP1;ratioP1;P1;durP2;ratioP2;P2;SDS_P1;SDS_P2;PMS_P1;PMS_P2;Temp;Humidity;BMP_temperature;BMP_pressure;BME280_temperature;BME280_humidity;BME280_pressure;Samples;Min_cycle;Max_cycle;Signal;HPM_P1;HPM_P2
2021/10/07 00:00:14;;;;;;;4.78;1.20;;;8.60;99.90;;;;;;6091052;23;20041;-86
2021/10/07 00:02:40;;;;;;;4.43;1.20;;;8.60;99.90;;;;;;6139167;23;20013;-86
2021/10/07 00:05:08;;;;;;;3.17;1.65;;;8.60;99.90;;;;;;6114634;23;20010;-85
2021/10/07 00:07:34;;;;;;;2.50;1.45;;;8.60;99.90;;;;;;6113638;23;20021;-85
2021/10/07 00:10:00;;;;;;;3.28;1.42;;;8.70;99.90;;;;;;6114637;23;20009;-86
2021/10/07 00:12:26;;;;;;;3.38;1.30;;;8.70;99.90;;;;;;6114383;23;20010;-86
2021/10/07 00:14:51;;;;;;;4.00;1.05;;;8.70;99.90;;;;;;6114373;23;20033;-86
2021/10/07 00:17:17;;;;;;;3.75;1.67;;;8.70;99.90;;;;;;6113915;23;20025;-86
2021/10/07 00:19:43;;;;;;;3.90;1.67;;;8.70;99.90;;;;;;6114797;23;20010;-85
2021/10/07 00:22:09;;;;;;;3.50;1.48;;;8.70;99.90;;;;;;6090683;23;20006;-85
2021/10/07 00:24:34;;;;;;;2.92;1.55;;;8.80;99.90;;;;;;6114808;23;20013;-85
2021/10/07 00:27:00;;;;;;;3.03;1.33;;;8.80;99.90;;;;;;6114707;23;20010;-86
2021/10/07 00:32:14;;;;;;;1.90;1.05;;;8.80;99.90;;;;;;6138840;23;20065;-86
2021/10/07 00:34:54;;;;;;;2.95;1.42;;;8.90;99.90;;;;;;6114893;23;20084;-85
2021/10/07 00:39:55;;;;;;;3.50;1.20;;;8.90;99.90;;;;;;6139221;23;20010;-86
2021/10/07 00:42:21;;;;;;;2.28;1.33;;;9.00;99.90;;;;;;6114840;23;20097;-86
2021/10/07 00:44:47;;;;;;;3.90;1.17;;;9.00;99.90;;;;;;6114750;23;20014;-84
2021/10/07 00:47:15;;;;;;;1.80;1.20;;;9.00;99.90;;;;;;6139782;23;20025;-87
2021/10/07 00:49:41;;;;;;;1.65;1.15;;;8.90;99.90;;;;;;6141358;23;20006;-86
2021/10/07 00:52:09;;;;;;;1.67;1.23;;;8.90;99.90;;;;;;6116216;23;20024;-87
2021/10/07 00:54:35;;;;;;;2.95;0.95;;;9.00;99.90;;;;;;6115509;23;20068;-86
2021/10/07 00:57:06;;;;;;;1.60;1.17;;;9.00;99.90;;;;;;6114238;23;20034;-86
2021/10/07 00:59:36;;;;;;;1.98;1.00;;;9.00;99.90;;;;;;6114599;23;20006;-87
2021/10/07 01:02:08;;;;;;;1.70;0.88;;;8.90;99.90;;;;;;6090423;23;20010;-87
2021/10/07 01:04:35;;;;;;;1.48;1.05;;;8.90;99.90;;;;;;6114280;23;20006;-86
2021/10/07 01:07:01;;;;;;;1.80;1.13;;;8.90;99.90;;;;;;6114428;23;20013;-87
2021/10/07 01:09:31;;;;;;;2.47;1.50;;;8.90;99.90;;;;;;6142580;23;20014;-86
2021/10/07 01:11:58;;;;;;;5.05;1.23;;;8.90;99.90;;;;;;6141045;23;20010;-87
2021/10/07 01:14:35;;;;;;;3.35;1.55;;;8.90;99.90;;;;;;6116739;23;20042;-88
2021/10/07 01:17:01;;;;;;;1.90;1.23;;;8.90;99.90;;;;;;6116376;23;20006;-86
2021/10/07 01:19:28;;;;;;;2.20;1.13;;;8.90;99.90;;;;;;6116436;23;20024;-86
2021/10/07 01:21:54;;;;;;;2.30;1.45;;;8.90;99.90;;;;;;6116167;23;20006;-87
2021/10/07 01:24:20;;;;;;;1.98;1.27;;;8.90;99.90;;;;;;6116285;23;20101;-85
2021/10/07 01:26:45;;;;;;;2.38;1.70;;;8.90;99.90;;;;;;6142323;23;20014;-85
2021/10/07 01:29:11;;;;;;;2.65;1.48;;;9.00;99.90;;;;;;6116908;23;20008;-86
2021/10/07 01:31:36;;;;;;;3.45;1.50;;;9.00;99.90;;;;;;6116392;23;20014;-85
2021/10/07 01:34:02;;;;;;;2.20;1.40;;;9.00;99.90;;;;;;6116087;23;20006;-87
2021/10/07 01:36:28;;;;;;;2.53;1.58;;;9.00;99.90;;;;;;6116210;23;20009;-86
2021/10/07 01:38:54;;;;;;;3.33;1.67;;;9.00;99.90;;;;;;6116519;23;20014;-89
2021/10/07 01:41:19;;;;;;;2.47;1.42;;;9.00;99.90;;;;;;6116037;23;20010;-87
2021/10/07 01:43:45;;;;;;;3.33;1.75;;;9.00;99.90;;;;;;6116511;23;20006;-87
2021/10/07 01:46:10;;;;;;;2.72;1.83;;;9.00;99.90;;;;;;6115717;23;20021;-86
2021/10/07 01:48:36;;;;;;;3.63;1.23;;;9.10;99.90;;;;;;6116351;23;20077;-87
2021/10/07 01:51:02;;;;;;;3.08;1.70;;;9.20;99.90;;;;;;6116408;23;20024;-87
2021/10/07 01:53:27;;;;;;;2.25;1.67;;;9.10;99.90;;;;;;6116054;23;20002;-86
2021/10/07 01:55:53;;;;;;;2.47;1.52;;;9.10;99.90;;;;;;6115934;23;20025;-85
2021/10/07 01:58:20;;;;;;;2.60;1.80;;;9.10;99.90;;;;;;6115680;23;20024;-87
2021/10/07 02:00:45;;;;;;;3.80;1.58;;;9.20;99.90;;;;;;6140908;23;20014;-86
2021/10/07 02:03:11;;;;;;;2.70;1.67;;;9.20;99.90;;;;;;6140494;23;20006;-85
2021/10/07 02:05:36;;;;;;;2.40;1.73;;;9.20;99.90;;;;;;6116158;23;20017;-88
2021/10/07 02:08:02;;;;;;;2.72;1.95;;;9.20;99.90;;;;;;6115387;23;20037;-85
2021/10/07 02:10:28;;;;;;;4.03;1.98;;;9.20;99.90;;;;;;6115938;23;19998;-85
2021/10/07 02:12:54;;;;;;;2.80;1.98;;;9.20;99.90;;;;;;6115929;23;20020;-86
2021/10/07 02:15:19;;;;;;;3.10;2.15;;;9.20;99.90;;;;;;6115865;23;20010;-86
2021/10/07 02:17:45;;;;;;;4.85;2.17;;;9.30;99.90;;;;;;6140358;23;20069;-86
2021/10/07 02:20:11;;;;;;;2.63;1.73;;;9.20;99.90;;;;;;6115500;23;20013;-87
2021/10/07 02:22:38;;;;;;;2.75;1.95;;;9.20;99.90;;;;;;6115884;23;20096;-86
2021/10/07 02:25:04;;;;;;;2.40;1.88;;;9.20;99.90;;;;;;6115679;23;20009;-86
2021/10/07 02:27:30;;;;;;;3.90;2.10;;;9.30;99.90;;;;;;6141377;23;20067;-87
2021/10/07 02:29:55;;;;;;;2.63;2.05;;;9.30;99.90;;;;;;6116046;23;20116;-86
2021/10/07 02:32:21;;;;;;;4.18;2.00;;;9.30;99.90;;;;;;6115452;23;20034;-86
2021/10/07 02:34:48;;;;;;;3.00;2.30;;;9.30;99.90;;;;;;6140475;23;20006;-86
2021/10/07 02:37:13;;;;;;;2.42;2.13;;;9.20;99.90;;;;;;6115254;23;20017;-86
2021/10/07 02:39:39;;;;;;;3.00;2.33;;;9.20;99.90;;;;;;6116038;23;20006;-87
2021/10/07 02:42:05;;;;;;;2.80;2.03;;;9.20;99.90;;;;;;6115774;23;20010;-87
2021/10/07 02:44:51;;;;;;;3.20;2.30;;;9.20;99.90;;;;;;6139285;23;20009;-86
2021/10/07 02:47:17;;;;;;;4.78;2.55;;;9.20;99.90;;;;;;6110400;23;20095;-86
2021/10/07 02:49:43;;;;;;;3.05;2.40;;;9.10;99.90;;;;;;6109758;23;20006;-87
2021/10/07 02:52:08;;;;;;;2.47;2.00;;;9.10;99.90;;;;;;6085469;23;20007;-88
2021/10/07 02:54:34;;;;;;;3.47;1.77;;;9.00;99.90;;;;;;6085786;23;20011;-88
2021/10/07 02:57:00;;;;;;;3.45;2.40;;;9.00;99.90;;;;;;6109226;23;20025;-89
2021/10/07 02:59:25;;;;;;;2.78;2.03;;;8.90;99.90;;;;;;6109567;23;20593;-88
2021/10/07 03:01:51;;;;;;;3.22;1.90;;;8.80;99.90;;;;;;6109719;23;20030;-87
2021/10/07 03:04:16;;;;;;;2.53;2.30;;;8.80;99.90;;;;;;6109622;23;20073;-88
2021/10/07 03:06:42;;;;;;;2.80;2.17;;;8.70;99.90;;;;;;6109116;23;20018;-88
2021/10/07 03:09:08;;;;;;;2.70;2.10;;;8.60;99.90;;;;;;6109463;23;20041;-88
2021/10/07 03:11:34;;;;;;;2.80;2.40;;;8.60;99.90;;;;;;6109504;23;20498;-88
2021/10/07 03:14:00;;;;;;;2.88;2.20;;;8.70;99.90;;;;;;6109622;23;20013;-87
2021/10/07 03:16:26;;;;;;;4.25;2.45;;;8.80;99.90;;;;;;6109074;23;20010;-87
2021/10/07 03:18:52;;;;;;;7.03;2.47;;;8.70;99.90;;;;;;6109040;23;20038;-88
2021/10/07 03:21:18;;;;;;;2.85;2.08;;;8.60;99.90;;;;;;6085171;23;20006;-88
2021/10/07 03:23:44;;;;;;;3.70;2.88;;;8.60;99.90;;;;;;6115494;23;20014;-87
2021/10/07 03:26:11;;;;;;;2.88;1.73;;;8.70;99.90;;;;;;6115236;23;20010;-88
2021/10/07 03:28:37;;;;;;;5.82;3.40;;;8.70;99.90;;;;;;6115450;23;20020;-88
2021/10/07 03:31:02;;;;;;;6.47;2.38;;;8.60;99.90;;;;;;6110204;23;20302;-87
2021/10/07 03:33:28;;;;;;;4.53;2.78;;;8.60;99.90;;;;;;6109948;23;20006;-88
2021/10/07 03:35:55;;;;;;;5.38;3.00;;;8.60;99.90;;;;;;6114962;23;20017;-88
2021/10/07 03:38:20;;;;;;;7.07;2.72;;;8.60;99.90;;;;;;6139555;23;20089;-88
2021/10/07 03:40:46;;;;;;;2.55;2.13;;;8.60;99.90;;;;;;6114449;23;20007;-87
2021/10/07 03:43:12;;;;;;;3.20;2.88;;;8.60;99.90;;;;;;6114155;23;20008;-86
2021/10/07 03:45:37;;;;;;;3.33;2.78;;;8.60;99.90;;;;;;6115048;23;20017;-87
2021/10/07 03:48:03;;;;;;;3.17;2.70;;;8.60;99.90;;;;;;6090913;23;20006;-88
2021/10/07 03:50:29;;;;;;;3.38;2.90;;;8.60;99.90;;;;;;6115027;23;20006;-87
2021/10/07 03:52:54;;;;;;;3.42;2.78;;;8.70;99.90;;;;;;6114765;23;20085;-87
2021/10/07 03:55:20;;;;;;;4.60;2.70;;;8.60;99.90;;;;;;6114659;23;20014;-85
2021/10/07 03:57:46;;;;;;;3.60;2.20;;;8.70;99.90;;;;;;6114387;23;20014;-87
2021/10/07 04:00:12;;;;;;;3.30;2.90;;;8.70;99.90;;;;;;6115003;23;20089;-87
2021/10/07 04:02:40;;;;;;;4.55;2.67;;;8.60;99.90;;;;;;6138722;23;20014;-86
2021/10/07 04:05:06;;;;;;;4.25;2.40;;;8.60;99.90;;;;;;6115068;23;20006;-87
2021/10/07 04:07:32;;;;;;;3.20;2.72;;;8.60;99.90;;;;;;6114835;23;20010;-87
2021/10/07 04:09:58;;;;;;;3.03;2.42;;;8.60;99.90;;;;;;6114770;23;20384;-88
2021/10/07 04:12:26;;;;;;;3.70;2.88;;;8.60;99.90;;;;;;6112135;23;20014;-89
2021/10/07 04:14:55;;;;;;;6.40;2.55;;;8.60;99.90;;;;;;6121311;23;20070;-89
2021/10/07 04:17:23;;;;;;;4.80;2.40;;;8.60;99.90;;;;;;6112953;23;20021;-88
2021/10/07 04:19:49;;;;;;;4.68;2.05;;;8.60;99.90;;;;;;6113596;23;20017;-87
2021/10/07 04:22:14;;;;;;;3.88;3.10;;;8.60;99.90;;;;;;6113339;23;20010;-87
2021/10/07 04:24:40;;;;;;;3.92;2.17;;;8.60;99.90;;;;;;6113552;23;20012;-87
2021/10/07 04:27:05;;;;;;;3.00;2.35;;;8.70;99.90;;;;;;6113142;23;20006;-88
2021/10/07 04:29:31;;;;;;;2.88;2.08;;;8.70;99.90;;;;;;6112994;23;20017;-87
2021/10/07 04:31:57;;;;;;;9.10;2.28;;;8.70;99.90;;;;;;6113642;23;20045;-87
2021/10/07 04:34:22;;;;;;;3.55;2.22;;;8.70;99.90;;;;;;6113207;23;20017;-89
2021/10/07 04:36:48;;;;;;;8.13;3.67;;;8.70;99.90;;;;;;6113690;23;20017;-88
2021/10/07 04:39:14;;;;;;;3.63;2.42;;;8.70;99.90;;;;;;6114340;23;20014;-88
2021/10/07 04:41:39;;;;;;;2.28;1.42;;;8.70;99.90;;;;;;6114568;23;20008;-88
2021/10/07 04:44:05;;;;;;;17.65;3.70;;;8.70;99.90;;;;;;6114290;23;20133;-87
2021/10/07 04:46:31;;;;;;;9.23;3.78;;;8.60;99.90;;;;;;6114661;23;20020;-86
2021/10/07 04:48:56;;;;;;;3.95;3.47;;;8.70;99.90;;;;;;6114558;23;20276;-87
2021/10/07 04:51:22;;;;;;;3.83;2.92;;;8.70;99.90;;;;;;6114510;23;20006;-87
2021/10/07 04:53:47;;;;;;;7.82;2.88;;;8.80;99.90;;;;;;6114704;23;20013;-88
2021/10/07 04:56:13;;;;;;;3.35;2.75;;;8.80;99.90;;;;;;6114786;23;20062;-88
2021/10/07 04:58:38;;;;;;;2.97;2.08;;;8.80;99.90;;;;;;6114679;23;20080;-87
2021/10/07 05:01:04;;;;;;;14.20;2.83;;;8.90;99.90;;;;;;6114730;23;20010;-87
2021/10/07 05:03:30;;;;;;;3.45;2.53;;;8.80;99.90;;;;;;6114315;23;20010;-87
2021/10/07 05:05:55;;;;;;;3.97;2.17;;;8.90;99.90;;;;;;6114616;23;20069;-87
2021/10/07 05:08:21;;;;;;;21.40;3.67;;;9.00;99.90;;;;;;6114656;23;20010;-87
2021/10/07 05:10:46;;;;;;;3.40;2.88;;;8.80;99.90;;;;;;6115721;23;20014;-87
2021/10/07 05:13:13;;;;;;;3.50;2.72;;;8.80;99.90;;;;;;6114507;23;20054;-87
2021/10/07 05:15:39;;;;;;;3.50;2.75;;;8.90;99.90;;;;;;6114499;23;20010;-87
2021/10/07 05:18:13;;;;;;;3.40;2.97;;;8.90;99.90;;;;;;6114463;23;20025;-87
2021/10/07 05:20:39;;;;;;;14.60;2.28;;;8.90;99.90;;;;;;6139434;23;20010;-87
2021/10/07 05:23:05;;;;;;;3.88;2.97;;;8.90;99.90;;;;;;6114540;23;20093;-88
2021/10/07 05:25:30;;;;;;;5.78;2.85;;;8.90;99.90;;;;;;6114254;23;20013;-88
2021/10/07 05:27:56;;;;;;;4.93;2.00;;;8.90;99.90;;;;;;6114479;23;20017;-88
2021/10/07 05:30:22;;;;;;;3.17;2.47;;;8.90;99.90;;;;;;6114651;23;20006;-87
2021/10/07 05:32:47;;;;;;;3.50;2.55;;;8.90;99.90;;;;;;6114106;23;20096;-87
2021/10/07 05:35:13;;;;;;;4.97;2.78;;;9.00;99.90;;;;;;6114756;23;20029;-88
2021/10/07 05:37:38;;;;;;;4.70;3.45;;;9.00;99.90;;;;;;6114688;23;20077;-88
2021/10/07 05:40:04;;;;;;;10.18;3.13;;;9.00;99.90;;;;;;6114790;23;20002;-88
2021/10/07 05:42:30;;;;;;;10.32;3.83;;;9.00;99.90;;;;;;6114582;23;20014;-87
2021/10/07 05:44:56;;;;;;;4.55;3.38;;;9.00;99.90;;;;;;6114521;23;20006;-87
2021/10/07 05:47:22;;;;;;;6.22;3.28;;;8.90;99.90;;;;;;6114277;23;20026;-88
2021/10/07 05:49:47;;;;;;;4.90;3.95;;;9.00;99.90;;;;;;6114762;23;20029;-87
2021/10/07 05:52:13;;;;;;;5.50;3.50;;;8.90;99.90;;;;;;6114690;23;20006;-88
2021/10/07 05:54:38;;;;;;;4.70;3.47;;;9.00;99.90;;;;;;6115136;23;20443;-88
2021/10/07 05:57:04;;;;;;;4.95;3.80;;;9.00;99.90;;;;;;6115810;23;20010;-88
2021/10/07 05:59:30;;;;;;;7.10;4.07;;;9.00;99.90;;;;;;6116668;23;20013;-88
2021/10/07 06:01:56;;;;;;;5.82;3.88;;;9.00;99.90;;;;;;6115463;23;20014;-88
2021/10/07 06:04:21;;;;;;;5.43;3.80;;;9.10;99.90;;;;;;6115781;23;20087;-89
2021/10/07 06:06:47;;;;;;;7.22;4.45;;;9.00;99.90;;;;;;6114683;23;20010;-87
2021/10/07 06:09:13;;;;;;;6.70;4.07;;;9.00;99.90;;;;;;6115599;23;20022;-88
2021/10/07 06:11:39;;;;;;;6.97;4.68;;;9.00;99.90;;;;;;6114740;23;20320;-88
2021/10/07 06:14:05;;;;;;;16.27;4.63;;;9.10;99.90;;;;;;6115059;23;20041;-87
2021/10/07 06:16:33;;;;;;;9.60;4.53;;;9.10;99.90;;;;;;6115136;23;20014;-88
2021/10/07 06:19:02;;;;;;;13.30;4.15;;;9.00;99.90;;;;;;6115398;23;20040;-88
2021/10/07 06:21:27;;;;;;;6.70;4.00;;;9.10;99.90;;;;;;6115062;23;20010;-88
2021/10/07 06:23:53;;;;;;;6.90;4.20;;;9.10;99.90;;;;;;6115006;23;20021;-88
2021/10/07 06:26:18;;;;;;;7.68;4.55;;;9.00;99.90;;;;;;6139578;23;19998;-88
2021/10/07 06:28:46;;;;;;;7.55;4.43;;;9.10;99.90;;;;;;6139397;23;20006;-88
2021/10/07 06:31:12;;;;;;;6.53;4.22;;;9.10;99.90;;;;;;6114728;23;20017;-88
2021/10/07 06:33:38;;;;;;;17.63;4.32;;;9.10;99.90;;;;;;6115147;23;20006;-88
2021/10/07 06:36:03;;;;;;;13.23;4.85;;;9.00;99.90;;;;;;6114916;23;20013;-89
2021/10/07 06:38:29;;;;;;;8.70;5.40;;;9.00;99.90;;;;;;6114836;23;20041;-88
2021/10/07 06:40:54;;;;;;;9.82;4.70;;;9.20;99.90;;;;;;6115092;23;20006;-88
2021/10/07 06:43:20;;;;;;;10.52;4.97;;;9.20;99.90;;;;;;6114868;23;20124;-88
2021/10/07 06:45:46;;;;;;;8.20;4.57;;;9.20;99.90;;;;;;6114378;23;20018;-88
2021/10/07 06:48:11;;;;;;;6.35;4.28;;;9.20;99.90;;;;;;6115026;23;20002;-89
2021/10/07 06:50:42;;;;;;;7.60;4.60;;;9.30;99.90;;;;;;6114632;23;20025;-88
2021/10/07 06:53:11;;;;;;;11.60;3.85;;;9.40;99.90;;;;;;6115273;23;20058;-89
2021/10/07 06:55:38;;;;;;;8.77;3.30;;;9.30;99.90;;;;;;6139196;23;20010;-88
2021/10/07 06:58:04;;;;;;;12.00;4.80;;;9.30;99.90;;;;;;6139671;23;20018;-88
2021/10/07 07:00:30;;;;;;;18.70;5.70;;;9.30;99.90;;;;;;6114806;23;20006;-88
2021/10/07 07:02:58;;;;;;;11.13;4.55;;;9.30;99.90;;;;;;6140315;23;20156;-88
2021/10/07 07:05:25;;;;;;;6.00;4.47;;;9.40;99.90;;;;;;6114045;23;20033;-88
2021/10/07 07:07:51;;;;;;;7.13;4.38;;;9.60;99.90;;;;;;6114334;23;20010;-88
2021/10/07 07:10:17;;;;;;;6.70;4.35;;;9.60;99.90;;;;;;6114756;23;20017;-87
2021/10/07 07:12:48;;;;;;;12.75;3.72;;;9.70;99.90;;;;;;6114642;23;20448;-88
2021/10/07 07:15:16;;;;;;;17.17;3.05;;;9.70;99.90;;;;;;6114603;23;20006;-88
2021/10/07 07:17:43;;;;;;;6.50;3.13;;;9.70;99.90;;;;;;6139125;23;20040;-88
2021/10/07 07:20:09;;;;;;;14.48;3.80;;;9.70;99.90;;;;;;6114908;23;20062;-88
2021/10/07 07:22:36;;;;;;;15.27;3.80;;;9.60;99.90;;;;;;6114862;23;20010;-89
2021/10/07 07:25:03;;;;;;;5.63;2.95;;;9.80;99.90;;;;;;6114994;23;20002;-88
2021/10/07 07:27:29;;;;;;;8.23;3.20;;;9.90;99.90;;;;;;6138839;23;20014;-88
2021/10/07 07:29:55;;;;;;;6.38;4.18;;;10.00;99.90;;;;;;6114473;23;20461;-88
2021/10/07 07:32:21;;;;;;;6.30;3.67;;;10.00;99.90;;;;;;6114593;23;20017;-88
2021/10/07 07:34:47;;;;;;;12.50;3.83;;;10.10;99.90;;;;;;6139089;23;20014;-87
2021/10/07 07:37:14;;;;;;;7.55;3.70;;;10.10;99.90;;;;;;6114207;23;20064;-87
2021/10/07 07:39:40;;;;;;;6.65;3.95;;;10.20;99.90;;;;;;6114814;23;20092;-88
2021/10/07 07:42:06;;;;;;;8.30;4.10;;;10.20;99.90;;;;;;6114467;23;20130;-88
2021/10/07 07:44:35;;;;;;;6.72;3.47;;;10.20;99.90;;;;;;6114475;23;20010;-86
2021/10/07 07:47:01;;;;;;;9.13;3.60;;;10.20;99.90;;;;;;6114153;23;20034;-87
2021/10/07 07:49:26;;;;;;;13.07;3.40;;;10.20;99.90;;;;;;6114284;23;20200;-88
2021/10/07 07:51:52;;;;;;;5.38;3.30;;;10.20;99.90;;;;;;6114461;23;20066;-87
2021/10/07 07:54:17;;;;;;;8.75;4.60;;;10.30;99.90;;;;;;6114614;23;20013;-87
2021/10/07 07:56:43;;;;;;;9.10;4.13;;;10.30;99.90;;;;;;6138480;23;20057;-88
2021/10/07 07:59:09;;;;;;;12.60;5.25;;;10.30;99.90;;;;;;6115038;23;20070;-88
2021/10/07 08:01:38;;;;;;;7.10;4.25;;;10.40;99.90;;;;;;6114578;23;20033;-88
2021/10/07 08:04:06;;;;;;;8.43;4.57;;;10.60;99.90;;;;;;6113977;23;20010;-88
2021/10/07 08:06:35;;;;;;;9.00;4.90;;;10.80;99.90;;;;;;6114267;23;20037;-88
2021/10/07 08:09:01;;;;;;;6.73;3.93;;;10.90;99.90;;;;;;6114322;23;20032;-88
2021/10/07 08:11:27;;;;;;;12.70;6.00;;;10.80;99.90;;;;;;6114117;23;20256;-88
2021/10/07 08:13:53;;;;;;;9.65;5.35;;;10.70;99.90;;;;;;6113699;23;20010;-88
2021/10/07 08:16:18;;;;;;;9.93;5.70;;;10.80;99.90;;;;;;6138487;23;20076;-88
2021/10/07 08:18:44;;;;;;;8.43;5.50;;;10.80;99.90;;;;;;6113780;23;20084;-88
2021/10/07 08:21:10;;;;;;;7.47;4.28;;;10.90;99.90;;;;;;6114077;23;20016;-87
2021/10/07 08:23:37;;;;;;;8.40;5.05;;;11.10;99.90;;;;;;6113851;23;20018;-87
2021/10/07 08:26:03;;;;;;;9.38;5.80;;;11.20;99.90;;;;;;6138637;23;20052;-88
2021/10/07 08:28:28;;;;;;;10.52;5.18;;;11.10;99.90;;;;;;6113642;23;20010;-87
2021/10/07 08:30:54;;;;;;;8.75;5.20;;;11.00;99.90;;;;;;6113802;23;20030;-87
2021/10/07 08:33:20;;;;;;;12.07;5.97;;;11.10;99.90;;;;;;6114282;23;20431;-87
2021/10/07 08:35:49;;;;;;;10.48;5.60;;;11.00;99.90;;;;;;6113857;23;20006;-86
2021/10/07 08:38:15;;;;;;;9.02;5.57;;;11.10;99.90;;;;;;6113700;23;20447;-87
2021/10/07 08:40:41;;;;;;;9.98;6.20;;;11.10;99.90;;;;;;6113923;23;20006;-87
2021/10/07 08:43:06;;;;;;;8.85;5.38;;;11.20;99.90;;;;;;6138471;23;20112;-87
2021/10/07 08:45:32;;;;;;;8.55;4.78;;;11.20;99.90;;;;;;6113420;23;20005;-87
2021/10/07 08:47:58;;;;;;;10.15;6.03;;;11.40;99.90;;;;;;6138661;23;20016;-86
2021/10/07 08:50:24;;;;;;;8.07;4.57;;;11.50;99.90;;;;;;6138676;23;20002;-87
2021/10/07 08:52:50;;;;;;;10.48;5.78;;;11.60;99.90;;;;;;6113823;23;20383;-86
2021/10/07 08:55:16;;;;;;;9.82;5.15;;;11.40;99.90;;;;;;6113726;23;20005;-86
2021/10/07 08:57:42;;;;;;;12.70;5.50;;;11.40;99.90;;;;;;6137701;23;20086;-86
2021/10/07 09:00:13;;;;;;;9.05;5.70;;;11.30;99.90;;;;;;6113935;23;20020;-87
2021/10/07 09:02:40;;;;;;;8.68;5.43;;;11.40;99.90;;;;;;6113878;23;20010;-87
2021/10/07 09:05:09;;;;;;;8.82;5.10;;;11.50;99.90;;;;;;6113993;23;20002;-87
2021/10/07 09:07:51;;;;;;;7.32;4.60;;;11.60;99.90;;;;;;6113669;23;20014;-87
2021/10/07 09:10:16;;;;;;;8.07;4.72;;;11.80;99.90;;;;;;6113874;23;20013;-87
2021/10/07 09:13:03;;;;;;;9.10;4.53;;;11.90;99.90;;;;;;6113696;23;20089;-87
2021/10/07 09:15:32;;;;;;;8.98;6.22;;;11.70;99.90;;;;;;6113680;23;20046;-86
2021/10/07 09:18:08;;;;;;;9.27;5.35;;;11.60;99.90;;;;;;6113629;23;20026;-87
2021/10/07 09:20:36;;;;;;;9.60;5.80;;;11.70;99.90;;;;;;6113444;23;20020;-87
2021/10/07 09:23:12;;;;;;;10.63;5.57;;;11.80;99.90;;;;;;6137800;23;20065;-86
2021/10/07 09:26:05;;;;;;;9.63;5.47;;;11.90;99.90;;;;;;6113780;23;20009;-86
2021/10/07 09:28:56;;;;;;;8.20;4.88;;;12.00;99.90;;;;;;6138293;23;20010;-86
2021/10/07 09:31:35;;;;;;;9.40;5.70;;;11.90;99.90;;;;;;6140410;23;20010;-85
2021/10/07 09:34:06;;;;;;;10.50;5.70;;;12.10;99.90;;;;;;6140180;23;20014;-86
2021/10/07 09:36:33;;;;;;;8.95;5.07;;;12.30;99.90;;;;;;6115385;23;20013;-87
2021/10/07 09:39:01;;;;;;;9.95;5.85;;;12.30;99.90;;;;;;6114939;23;20018;-87
2021/10/07 09:41:30;;;;;;;12.57;6.68;;;12.30;99.90;;;;;;6115511;23;20036;-86
2021/10/07 09:43:59;;;;;;;9.65;5.25;;;12.20;99.90;;;;;;6140000;23;20006;-86
2021/10/07 09:46:45;;;;;;;9.18;5.85;;;12.20;99.90;;;;;;6115325;23;20024;-86
2021/10/07 09:49:16;;;;;;;9.80;6.05;;;12.20;99.90;;;;;;6116264;23;20036;-86
2021/10/07 09:51:52;;;;;;;9.85;5.97;;;12.30;99.90;;;;;;6139672;23;20009;-85
2021/10/07 09:54:20;;;;;;;9.40;5.43;;;12.40;99.90;;;;;;6139697;23;20013;-86
2021/10/07 09:56:58;;;;;;;12.60;6.97;;;12.40;99.90;;;;;;6139480;23;20010;-85
2021/10/07 09:59:25;;;;;;;12.20;7.13;;;12.40;99.90;;;;;;6139757;23;20052;-85
2021/10/07 10:01:53;;;;;;;14.80;8.45;;;12.50;99.90;;;;;;6115264;23;20002;-85
2021/10/07 10:04:19;;;;;;;14.73;8.75;;;12.50;99.90;;;;;;6139534;23;20010;-85
2021/10/07 10:06:44;;;;;;;11.88;7.28;;;12.50;99.90;;;;;;6114726;23;20038;-85
2021/10/07 10:09:10;;;;;;;18.60;8.80;;;12.60;99.90;;;;;;6115095;23;20006;-85
2021/10/07 10:11:35;;;;;;;12.60;7.75;;;12.60;99.90;;;;;;6091408;23;20049;-85
2021/10/07 10:14:01;;;;;;;12.73;7.30;;;12.80;99.90;;;;;;6115248;23;20391;-84
2021/10/07 10:16:29;;;;;;;13.88;7.95;;;12.90;99.90;;;;;;6138837;23;20036;-85
2021/10/07 10:19:00;;;;;;;12.45;7.35;;;13.00;99.90;;;;;;6115281;23;20101;-85
2021/10/07 10:21:27;;;;;;;13.25;7.25;;;13.00;99.90;;;;;;6139541;23;20021;-86
2021/10/07 10:23:54;;;;;;;13.27;7.93;;;12.80;99.90;;;;;;6114878;23;20038;-84
2021/10/07 10:26:20;;;;;;;12.73;7.63;;;13.00;99.90;;;;;;6090606;23;20379;-84
2021/10/07 10:28:52;;;;;;;10.75;6.88;;;13.00;99.90;;;;;;6114552;23;20006;-84
2021/10/07 10:31:36;;;;;;;13.05;7.47;;;13.00;99.90;;;;;;6114545;23;20014;-84
2021/10/07 10:34:14;;;;;;;13.32;7.57;;;13.00;99.90;;;;;;6129310;23;20006;-84
2021/10/07 10:36:44;;;;;;;13.05;7.25;;;13.00;99.90;;;;;;6114622;23;20506;-84
2021/10/07 10:39:15;;;;;;;;;;;12.90;99.90;;;;;;6139518;23;20013;-85
2021/10/07 10:41:57;;;;;;;13.10;7.93;;;12.90;99.90;;;;;;6114489;23;19905;-84
2021/10/07 10:44:46;;;;;;;13.13;8.00;;;12.70;99.90;;;;;;6114480;23;20014;-85
2021/10/07 10:47:11;;;;;;;13.68;8.05;;;12.80;99.90;;;;;;6054925;23;20485;-83
2021/10/07 10:49:55;;;;;;;13.38;7.45;;;12.70;99.90;;;;;;6055210;23;20025;-84
2021/10/07 10:52:37;;;;;;;13.30;8.55;;;12.90;99.90;;;;;;6055755;23;20086;-84
2021/10/07 10:55:04;;;;;;;15.45;9.00;;;12.70;99.90;;;;;;6030159;23;20034;-84
2021/10/07 10:57:40;;;;;;;11.45;7.22;;;12.80;99.90;;;;;;6079338;23;20466;-84
2021/10/07 11:00:06;;;;;;;13.40;8.15;;;12.80;99.90;;;;;;6079805;23;20035;-85
2021/10/07 11:02:31;;;;;;;13.23;8.55;;;12.60;99.90;;;;;;6055433;23;20034;-85
2021/10/07 11:04:58;;;;;;;13.68;8.40;;;12.60;99.90;;;;;;6079634;23;20067;-85
2021/10/07 11:07:31;;;;;;;11.88;7.47;;;12.60;99.90;;;;;;6079319;23;20015;-85
2021/10/07 11:10:17;;;;;;;10.23;6.70;;;12.80;99.90;;;;;;6055249;23;20007;-85
2021/10/07 11:12:55;;;;;;;11.32;7.30;;;12.90;99.90;;;;;;6079597;23;20247;-86
2021/10/07 11:15:23;;;;;;;12.23;7.35;;;12.90;99.90;;;;;;6055745;23;20368;-85
2021/10/07 11:17:53;;;;;;;10.15;6.82;;;12.80;99.90;;;;;;6055205;23;20050;-85
2021/10/07 11:20:30;;;;;;;12.65;8.50;;;12.90;99.90;;;;;;6079536;23;20037;-85
2021/10/07 11:23:15;;;;;;;10.23;6.43;;;13.00;99.90;;;;;;6055262;23;20135;-85
2021/10/07 11:25:49;;;;;;;10.55;6.95;;;13.10;99.90;;;;;;6114039;23;20049;-84
2021/10/07 11:28:19;;;;;;;11.32;7.22;;;13.00;99.90;;;;;;6114211;23;20089;-85
2021/10/07 11:30:46;;;;;;;9.88;7.25;;;13.10;99.90;;;;;;6138743;23;20006;-84
2021/10/07 11:33:12;;;;;;;9.70;7.05;;;13.20;99.90;;;;;;6113918;23;20010;-84
2021/10/07 11:35:38;;;;;;;11.10;6.45;;;13.20;99.90;;;;;;6113600;23;20025;-85
2021/10/07 11:38:07;;;;;;;10.13;6.97;;;13.20;99.90;;;;;;6108919;23;20070;-85
2021/10/07 11:40:36;;;;;;;11.30;7.28;;;13.20;99.90;;;;;;6114023;23;20384;-84
2021/10/07 11:43:07;;;;;;;12.10;7.65;;;13.20;99.90;;;;;;6108993;23;20057;-84
2021/10/07 11:45:42;;;;;;;10.88;7.38;;;13.10;99.90;;;;;;6109264;23;20011;-84
2021/10/07 11:48:08;;;;;;;10.80;7.68;;;13.00;99.90;;;;;;6108352;23;20015;-83
2021/10/07 11:50:38;;;;;;;12.50;7.78;;;13.10;99.90;;;;;;6113650;23;20542;-83
2021/10/07 11:53:04;;;;;;;12.38;7.72;;;13.20;99.90;;;;;;6112899;23;20056;-83
2021/10/07 11:55:30;;;;;;;11.32;7.80;;;13.20;99.90;;;;;;6109438;23;20062;-83
2021/10/07 11:57:59;;;;;;;10.48;7.38;;;13.20;99.90;;;;;;6113270;23;20017;-84
2021/10/07 12:01:01;;;;;;;12.32;7.57;;;13.30;99.90;;;;;;6108766;23;20006;-83
2021/10/07 12:03:31;;;;;;;11.68;7.72;;;13.40;99.90;;;;;;6135005;23;20033;-83
2021/10/07 12:06:03;;;;;;;11.60;8.55;;;13.30;99.90;;;;;;6113257;23;20057;-83
2021/10/07 12:08:31;;;;;;;12.88;8.40;;;13.30;99.90;;;;;;6113302;23;20407;-84
2021/10/07 12:11:04;;;;;;;10.57;7.50;;;13.30;99.90;;;;;;6113400;23;20010;-84
2021/10/07 12:13:31;;;;;;;12.20;7.75;;;13.40;99.90;;;;;;6113316;23;20029;-84
2021/10/07 12:16:01;;;;;;;10.45;7.90;;;13.50;99.90;;;;;;6137408;23;20021;-84
2021/10/07 12:18:28;;;;;;;8.25;6.03;;;13.70;99.90;;;;;;6137765;23;20029;-85
2021/10/07 12:21:06;;;;;;;9.85;6.95;;;13.80;99.90;;;;;;6126413;23;20012;-84
2021/10/07 12:24:10;;;;;;;11.45;7.43;;;13.80;99.90;;;;;;6137566;23;20006;-84
2021/10/07 12:26:40;;;;;;;14.02;8.45;;;13.70;99.90;;;;;;6115023;23;20061;-84
2021/10/07 12:29:07;;;;;;;;;;;13.60;99.90;;;;;;6113885;23;20077;-84
2021/10/07 12:31:33;;;;;;;10.00;6.15;;;13.50;99.90;;;;;;6138070;23;19905;-85
2021/10/07 12:34:08;;;;;;;11.90;7.50;;;13.70;99.90;;;;;;6113045;23;20013;-84
2021/10/07 12:36:43;;;;;;;10.40;7.25;;;13.70;99.90;;;;;;6113020;23;20034;-84
2021/10/07 12:39:38;;;;;;;10.70;7.97;;;13.60;99.90;;;;;;6107940;23;20038;-84
2021/10/07 12:42:16;;;;;;;8.82;6.45;;;13.60;99.90;;;;;;6094610;23;20037;-85
2021/10/07 12:44:49;;;;;;;8.88;6.85;;;13.70;99.90;;;;;;6113425;23;20025;-85
2021/10/07 12:47:27;;;;;;;11.23;7.35;;;13.80;99.90;;;;;;6113043;23;20022;-86
2021/10/07 12:50:13;;;;;;;11.13;7.22;;;13.90;99.90;;;;;;6113442;23;20010;-87
2021/10/07 12:52:41;;;;;;;11.43;7.82;;;13.90;99.90;;;;;;6110300;23;20299;-86
2021/10/07 12:55:09;;;;;;;9.13;6.60;;;13.80;99.90;;;;;;6113282;23;20014;-87
2021/10/07 12:57:40;;;;;;;9.10;6.90;;;13.70;99.90;;;;;;6110076;23;20096;-85
2021/10/07 13:00:28;;;;;;;10.50;6.75;;;13.60;99.90;;;;;;6108677;23;20007;-86